createdAt,value
2023-03-04T00:00:46.345Z,23.33
2023-03-04T00:03:17.301Z,23.10
2023-03-04T00:05:45.033Z,23.77
2023-03-04T00:08:12.584Z,20.88
2023-03-04T00:10:40.477Z,18.95
2023-03-04T00:13:08.513Z,20.95
2023-03-04T00:15:37.080Z,21.30
2023-03-04T00:18:04.684Z,20.50
2023-03-04T00:20:32.185Z,16.42
2023-03-04T00:22:59.640Z,25.13
2023-03-04T00:25:27.212Z,27.00
2023-03-04T00:27:55.721Z,18.35
2023-03-04T00:30:23.632Z,25.10
2023-03-04T00:32:51.295Z,18.95
2023-03-04T00:35:18.970Z,20.60
2023-03-04T00:37:46.608Z,26.60
2023-03-04T00:40:14.342Z,30.90
2023-03-04T00:42:42.463Z,31.70
2023-03-04T00:45:10.431Z,33.63
2023-03-04T00:47:39.009Z,30.02
2023-03-04T00:50:07.240Z,35.17
2023-03-04T00:52:35.032Z,32.13
2023-03-04T00:55:02.504Z,34.97
2023-03-04T00:57:30.053Z,30.48
2023-03-04T00:59:57.978Z,37.30
2023-03-04T01:02:25.520Z,33.50
2023-03-04T01:04:53.874Z,40.83
2023-03-04T01:07:22.569Z,32.38
2023-03-04T01:09:50.442Z,35.03
2023-03-04T01:12:19.052Z,32.05
2023-03-04T01:14:47.262Z,28.85
2023-03-04T01:17:14.842Z,32.42
2023-03-04T01:19:42.975Z,35.67
2023-03-04T01:22:12.419Z,38.35
2023-03-04T01:24:40.574Z,38.40
2023-03-04T01:27:08.671Z,33.55
2023-03-04T01:29:36.223Z,39.65
2023-03-04T01:32:04.565Z,36.40
2023-03-04T01:34:32.559Z,35.25
2023-03-04T01:37:00.098Z,33.63
2023-03-04T01:39:28.942Z,32.78
2023-03-04T01:41:57.448Z,35.92
2023-03-04T01:44:25.539Z,34.72
2023-03-04T01:46:55.238Z,28.60
2023-03-04T01:49:25.290Z,35.65
2023-03-04T01:51:54.995Z,34.15
2023-03-04T01:54:23.332Z,33.30
2023-03-04T01:56:52.854Z,29.42
2023-03-04T01:59:25.970Z,26.67
2023-03-04T02:02:00.455Z,32.33
2023-03-04T02:04:34.488Z,34.55
2023-03-04T02:07:03.516Z,34.85
2023-03-04T02:09:33.228Z,29.67
2023-03-04T02:12:02.014Z,29.02
2023-03-04T02:14:29.747Z,36.53
2023-03-04T02:16:57.604Z,31.10
2023-03-04T02:19:37.606Z,30.15
2023-03-04T02:22:05.533Z,29.48
2023-03-04T02:24:41.777Z,27.60
2023-03-04T02:27:09.995Z,25.42
2023-03-04T02:29:37.988Z,32.10
2023-03-04T02:32:06.116Z,33.38
2023-03-04T02:34:35.918Z,32.20
2023-03-04T02:37:04.729Z,30.67
2023-03-04T02:39:40.514Z,33.60
2023-03-04T02:42:08.652Z,32.40
2023-03-04T02:44:46.180Z,32.53
2023-03-04T02:47:17.933Z,31.52
2023-03-04T02:49:47.474Z,31.80
2023-03-04T02:52:22.776Z,37.70
2023-03-04T02:54:51.300Z,27.83
2023-03-04T02:57:19.267Z,28.83
2023-03-04T02:59:51.721Z,31.70
2023-03-04T03:02:22.717Z,33.30
2023-03-04T03:04:50.596Z,28.35
2023-03-04T03:07:20.303Z,35.97
2023-03-04T03:09:49.248Z,33.38
2023-03-04T03:12:18.862Z,35.95
2023-03-04T03:14:47.405Z,28.77
2023-03-04T03:17:18.652Z,38.13
2023-03-04T03:19:47.729Z,33.17
2023-03-04T03:22:15.975Z,36.42
2023-03-04T03:24:43.664Z,33.47
2023-03-04T03:27:11.131Z,33.03
2023-03-04T03:29:40.372Z,32.50
2023-03-04T03:32:09.765Z,41.42
2023-03-04T03:34:37.909Z,33.88
2023-03-04T03:37:06.119Z,39.03
2023-03-04T03:39:33.944Z,32.40
2023-03-04T03:42:01.477Z,36.38
2023-03-04T03:44:29.111Z,35.47
2023-03-04T03:46:58.408Z,29.48
2023-03-04T03:49:26.000Z,35.70
2023-03-04T03:51:53.947Z,42.50
2023-03-04T03:54:21.958Z,28.80
2023-03-04T03:56:49.900Z,30.15
2023-03-04T03:59:18.043Z,30.33
2023-03-04T04:01:46.555Z,33.35
2023-03-04T04:04:14.148Z,30.30
2023-03-04T04:06:41.700Z,35.58
2023-03-04T04:09:09.589Z,31.65
2023-03-04T04:11:37.652Z,33.35
2023-03-04T04:14:05.968Z,38.58
2023-03-04T04:16:33.587Z,31.15
2023-03-04T04:19:01.311Z,33.40
2023-03-04T04:21:28.955Z,31.35
2023-03-04T04:23:56.935Z,31.13
2023-03-04T04:26:25.285Z,36.05
2023-03-04T04:28:52.778Z,32.42
2023-03-04T04:31:20.802Z,31.30
2023-03-04T04:33:48.338Z,37.13
2023-03-04T04:36:17.481Z,34.33
2023-03-04T04:38:45.755Z,34.28
2023-03-04T04:41:23.958Z,30.83
2023-03-04T04:43:52.536Z,32.70
2023-03-04T04:46:21.287Z,32.03
2023-03-04T04:48:49.924Z,41.97
2023-03-04T04:51:17.451Z,35.00
2023-03-04T04:53:45.413Z,38.03
2023-03-04T04:56:19.649Z,42.15
2023-03-04T04:58:48.603Z,41.65
2023-03-04T05:01:16.840Z,35.72
2023-03-04T05:03:44.450Z,38.92
2023-03-04T05:06:13.647Z,32.38
2023-03-04T05:08:41.328Z,34.83
2023-03-04T05:11:10.018Z,36.22
2023-03-04T05:13:37.636Z,37.92
2023-03-04T05:16:05.748Z,34.75
2023-03-04T05:18:33.547Z,38.10
2023-03-04T05:21:02.143Z,35.83
2023-03-04T05:23:33.995Z,37.50
2023-03-04T05:26:02.739Z,42.50
2023-03-04T05:28:30.893Z,37.15
2023-03-04T05:30:58.583Z,35.72
2023-03-04T05:33:26.459Z,37.40
2023-03-04T05:35:55.192Z,36.55
2023-03-04T05:38:23.337Z,38.85
2023-03-04T05:40:57.488Z,53.50
2023-03-04T05:43:26.617Z,38.63
2023-03-04T05:45:55.161Z,36.83
2023-03-04T05:48:23.421Z,44.60
2023-03-04T05:50:56.736Z,40.65
2023-03-04T05:53:25.026Z,54.72
2023-03-04T05:55:52.625Z,72.35
2023-03-04T05:58:20.850Z,63.80
2023-03-04T06:00:48.534Z,60.70
2023-03-04T06:03:19.281Z,63.33
2023-03-04T06:05:48.089Z,51.10
2023-03-04T06:08:16.163Z,47.85
2023-03-04T06:10:43.669Z,48.35
2023-03-04T06:13:11.943Z,41.35
2023-03-04T06:15:40.897Z,42.95
2023-03-04T06:18:09.122Z,41.15
2023-03-04T06:20:37.608Z,41.08
2023-03-04T06:23:05.912Z,42.05
2023-03-04T06:25:33.422Z,42.33
2023-03-04T06:28:00.933Z,42.28
2023-03-04T06:30:28.930Z,48.35
2023-03-04T06:32:56.456Z,47.50
2023-03-04T06:35:24.067Z,45.10
2023-03-04T06:37:52.636Z,41.47
2023-03-04T06:40:20.622Z,44.88
2023-03-04T06:42:49.112Z,42.85
2023-03-04T06:45:16.986Z,35.70
2023-03-04T06:47:45.148Z,39.08
2023-03-04T06:50:13.950Z,33.25
2023-03-04T06:52:41.517Z,42.40
2023-03-04T06:55:09.391Z,45.05
2023-03-04T06:57:36.935Z,41.08
2023-03-04T07:00:06.441Z,44.25
2023-03-04T07:02:34.897Z,34.08
2023-03-04T07:05:03.536Z,45.78
2023-03-04T07:07:31.487Z,34.42
2023-03-04T07:09:59.443Z,41.78
2023-03-04T07:12:26.964Z,39.97
2023-03-04T07:14:55.120Z,37.22
2023-03-04T07:17:22.974Z,39.15
2023-03-04T07:19:50.542Z,34.15
2023-03-04T07:22:18.100Z,36.60
2023-03-04T07:24:46.045Z,42.78
2023-03-04T07:27:13.561Z,42.67
2023-03-04T07:29:41.976Z,32.05
2023-03-04T07:32:10.423Z,32.08
2023-03-04T07:34:38.053Z,41.95
2023-03-04T07:37:05.584Z,35.85
2023-03-04T07:39:33.547Z,35.78
2023-03-04T07:42:02.093Z,31.65
2023-03-04T07:44:29.696Z,30.95
2023-03-04T07:46:57.566Z,38.83
2023-03-04T07:49:25.623Z,32.22
2023-03-04T07:51:57.215Z,39.10
2023-03-04T07:54:24.808Z,49.22
2023-03-04T07:56:53.858Z,39.08
2023-03-04T07:59:21.843Z,36.78
2023-03-04T08:01:49.750Z,38.13
2023-03-04T08:04:17.366Z,34.30
2023-03-04T08:06:45.799Z,37.38
2023-03-04T08:09:14.109Z,42.58
2023-03-04T08:11:42.765Z,45.53
2023-03-04T08:14:13.023Z,39.13
2023-03-04T08:16:40.973Z,38.47
2023-03-04T08:19:09.593Z,36.28
2023-03-04T08:21:37.980Z,37.97
2023-03-04T08:24:08.918Z,38.38
2023-03-04T08:26:42.084Z,37.38
2023-03-04T08:29:16.803Z,31.35
2023-03-04T08:31:48.774Z,40.47
2023-03-04T08:34:17.782Z,34.95
2023-03-04T08:36:45.958Z,38.22
2023-03-04T08:39:15.644Z,39.55
2023-03-04T08:41:43.331Z,40.05
2023-03-04T08:44:12.206Z,36.63
2023-03-04T08:46:41.552Z,30.15
2023-03-04T08:49:11.130Z,37.08
2023-03-04T08:51:39.102Z,38.15
2023-03-04T08:54:07.173Z,46.58
2023-03-04T08:56:35.151Z,37.65
2023-03-04T08:59:03.667Z,46.97
2023-03-04T09:01:32.099Z,37.53
2023-03-04T09:03:59.765Z,30.88
2023-03-04T09:06:27.984Z,35.10
2023-03-04T09:08:55.966Z,29.70
2023-03-04T09:11:23.607Z,35.38
2023-03-04T09:13:51.949Z,33.28
2023-03-04T09:16:19.725Z,27.20
2023-03-04T09:18:47.435Z,26.42
2023-03-04T09:21:16.490Z,28.40
2023-03-04T09:23:44.519Z,27.35
2023-03-04T09:26:25.406Z,26.30
2023-03-04T09:28:58.125Z,24.33
2023-03-04T09:31:27.006Z,24.25
2023-03-04T09:33:57.302Z,25.92
2023-03-04T09:36:25.573Z,24.23
2023-03-04T09:38:53.506Z,23.48
2023-03-04T09:41:37.282Z,23.90
2023-03-04T09:44:15.616Z,27.23
2023-03-04T09:46:46.191Z,26.13
2023-03-04T09:49:15.189Z,21.95
2023-03-04T09:51:59.629Z,25.88
2023-03-04T09:54:48.433Z,27.13
2023-03-04T09:57:45.848Z,28.42
2023-03-04T10:00:26.423Z,26.38
2023-03-04T10:03:12.094Z,31.90
2023-03-04T10:05:55.531Z,29.90
2023-03-04T10:08:42.257Z,25.40
2023-03-04T10:11:16.497Z,25.02
2023-03-04T10:14:21.567Z,38.00
2023-03-04T10:16:59.536Z,27.70
2023-03-04T10:19:57.265Z,27.33
2023-03-04T10:22:42.225Z,22.55
2023-03-04T10:25:19.306Z,22.33
2023-03-04T10:28:13.009Z,25.60
2023-03-04T10:30:51.523Z,24.10
2023-03-04T10:33:26.670Z,23.48
2023-03-04T10:36:18.259Z,27.80
2023-03-04T10:38:46.324Z,24.75
2023-03-04T10:41:26.289Z,23.42
2023-03-04T10:43:59.937Z,22.92
2023-03-04T10:48:55.823Z,23.55
2023-03-04T10:51:29.276Z,27.70
2023-03-04T10:54:10.376Z,23.25
2023-03-04T10:56:45.542Z,24.63
2023-03-04T10:59:41.359Z,23.67
2023-03-04T11:02:22.486Z,25.98
2023-03-04T11:05:17.836Z,26.25
2023-03-04T11:07:59.135Z,30.67
2023-03-04T11:10:36.334Z,23.48
2023-03-04T11:13:20.478Z,24.42
2023-03-04T11:15:58.116Z,25.77
2023-03-04T11:18:47.798Z,34.05
2023-03-04T11:21:25.357Z,26.92
2023-03-04T11:24:01.986Z,26.98
2023-03-04T11:26:41.182Z,25.80
2023-03-04T11:29:32.343Z,24.65
2023-03-04T11:32:27.655Z,25.48
2023-03-04T11:35:07.487Z,31.05
2023-03-04T11:37:46.071Z,24.58
2023-03-04T11:40:28.852Z,26.92
2023-03-04T11:43:12.553Z,35.33
2023-03-04T11:46:27.020Z,27.15
2023-03-04T11:49:29.396Z,23.98
2023-03-04T11:52:18.812Z,27.38
2023-03-04T11:54:59.084Z,26.52
2023-03-04T11:57:38.844Z,24.85
2023-03-04T12:00:25.093Z,24.77
2023-03-04T12:03:04.454Z,25.67
2023-03-04T12:05:56.954Z,31.63
2023-03-04T12:08:43.312Z,25.63
2023-03-04T12:11:45.796Z,26.27
2023-03-04T12:14:21.872Z,22.52
2023-03-04T12:17:09.715Z,25.75
2023-03-04T12:20:08.663Z,29.50
2023-03-04T12:23:02.510Z,27.77
2023-03-04T12:25:37.117Z,27.17
2023-03-04T12:28:27.769Z,24.77
2023-03-04T12:31:11.142Z,27.13
2023-03-04T12:33:49.049Z,25.05
2023-03-04T12:36:49.800Z,25.35
2023-03-04T12:39:27.511Z,25.38
2023-03-04T12:41:55.152Z,23.75
2023-03-04T12:44:23.595Z,24.00
2023-03-04T12:47:16.422Z,24.15
2023-03-04T12:49:57.038Z,23.42
2023-03-04T12:52:30.557Z,26.70
2023-03-04T12:57:47.001Z,26.63
2023-03-04T13:00:46.205Z,23.77
2023-03-04T13:03:20.403Z,26.30
2023-03-04T13:05:58.378Z,30.08
2023-03-04T13:08:38.007Z,28.63
2023-03-04T13:11:28.182Z,48.65
2023-03-04T13:14:05.918Z,28.70
2023-03-04T13:16:41.577Z,32.10
2023-03-04T13:19:44.631Z,24.95
2023-03-04T13:22:30.386Z,28.60
2023-03-04T13:24:59.780Z,27.70
2023-03-04T13:27:48.720Z,29.33
2023-03-04T13:30:33.426Z,32.28
2023-03-04T13:33:10.489Z,38.83
2023-03-04T13:35:50.342Z,34.60
2023-03-04T13:38:23.736Z,28.10
2023-03-04T13:41:00.382Z,36.05
2023-03-04T13:43:36.626Z,26.23
2023-03-04T13:46:19.525Z,28.50
2023-03-04T13:48:50.926Z,28.65
2023-03-04T13:51:45.046Z,26.80
2023-03-04T13:57:01.632Z,30.05
2023-03-04T14:00:06.504Z,24.33
2023-03-04T14:02:36.467Z,27.02
2023-03-04T14:05:04.734Z,34.35
2023-03-04T14:07:39.674Z,26.88
2023-03-04T14:10:14.987Z,27.73
2023-03-04T14:12:49.734Z,27.38
2023-03-04T14:15:24.844Z,25.95
2023-03-04T14:18:01.089Z,25.08
2023-03-04T14:20:37.142Z,25.55
2023-03-04T14:23:24.412Z,29.30
2023-03-04T14:25:52.346Z,28.17
2023-03-04T14:28:21.542Z,31.55
2023-03-04T14:30:54.761Z,28.63
2023-03-04T14:33:25.989Z,33.88
2023-03-04T14:35:57.258Z,32.65
2023-03-04T14:38:35.937Z,31.10
2023-03-04T14:41:21.611Z,27.83
2023-03-04T14:44:14.200Z,31.80
2023-03-04T14:47:04.646Z,27.40
2023-03-04T14:49:37.019Z,25.52
2023-03-04T14:52:05.226Z,29.13
2023-03-04T14:54:41.531Z,31.05
2023-03-04T14:57:29.945Z,39.88
2023-03-04T14:59:57.595Z,30.98
2023-03-04T15:02:39.731Z,27.15
2023-03-04T15:05:17.896Z,30.17
2023-03-04T15:07:58.465Z,29.00
2023-03-04T15:10:34.028Z,25.60
2023-03-04T15:13:03.966Z,26.33
2023-03-04T15:15:37.076Z,26.92
2023-03-04T15:18:26.331Z,29.15
2023-03-04T15:20:59.732Z,31.92
2023-03-04T15:23:29.556Z,26.00
2023-03-04T15:26:00.587Z,33.38
2023-03-04T15:28:37.835Z,25.88
2023-03-04T15:31:09.952Z,26.48
2023-03-04T15:33:41.511Z,27.02
2023-03-04T15:36:14.222Z,33.92
2023-03-04T15:38:50.351Z,42.60
2023-03-04T15:41:23.483Z,29.92
2023-03-04T15:43:52.944Z,29.13
2023-03-04T15:46:21.449Z,27.40
2023-03-04T15:48:49.571Z,25.77
2023-03-04T15:51:22.939Z,29.88
2023-03-04T15:53:53.442Z,29.88
2023-03-04T15:56:25.117Z,30.23
2023-03-04T15:58:56.728Z,34.78
2023-03-04T16:01:25.764Z,38.80
2023-03-04T16:03:53.957Z,32.92
2023-03-04T16:06:23.492Z,32.85
2023-03-04T16:08:52.311Z,34.95
2023-03-04T16:11:29.947Z,41.10
2023-03-04T16:13:58.671Z,38.83
2023-03-04T16:16:26.804Z,37.42
2023-03-04T16:18:54.294Z,36.08
2023-03-04T16:21:26.268Z,35.55
2023-03-04T16:23:54.774Z,32.17
2023-03-04T16:26:24.896Z,47.72
2023-03-04T16:28:53.719Z,32.60
2023-03-04T16:31:22.508Z,33.53
2023-03-04T16:33:50.446Z,33.38
2023-03-04T16:36:24.463Z,37.47
2023-03-04T16:38:55.924Z,36.53
2023-03-04T16:41:28.050Z,37.10
2023-03-04T16:43:57.061Z,32.10
2023-03-04T16:46:25.492Z,34.95
2023-03-04T16:48:54.057Z,35.25
2023-03-04T16:51:23.756Z,42.55
2023-03-04T16:54:00.300Z,36.92
2023-03-04T16:56:28.964Z,39.25
2023-03-04T16:58:56.585Z,41.08
2023-03-04T17:01:26.908Z,39.78
2023-03-04T17:03:55.822Z,40.38
2023-03-04T17:06:24.552Z,39.13
2023-03-04T17:08:52.709Z,39.30
2023-03-04T17:11:22.893Z,41.17
2023-03-04T17:13:51.608Z,46.75
2023-03-04T17:16:19.764Z,41.88
2023-03-04T17:18:47.366Z,42.88
2023-03-04T17:21:18.568Z,47.03
2023-03-04T17:23:46.685Z,48.88
2023-03-04T17:26:15.561Z,41.42
2023-03-04T17:28:43.541Z,44.67
2023-03-04T17:31:16.563Z,48.60
2023-03-04T17:33:45.408Z,44.78
2023-03-04T17:36:15.061Z,44.42
2023-03-04T17:38:43.299Z,41.30
2023-03-04T17:41:16.138Z,61.17
2023-03-04T17:43:50.635Z,58.00
2023-03-04T17:46:22.089Z,50.10
2023-03-04T17:48:52.346Z,46.20
2023-03-04T17:51:20.572Z,49.60
2023-03-04T17:53:48.571Z,43.25
2023-03-04T17:56:16.324Z,50.63
2023-03-04T17:58:44.389Z,52.00
2023-03-04T18:01:19.360Z,46.63
2023-03-04T18:03:47.848Z,43.33
2023-03-04T18:06:17.221Z,45.35
2023-03-04T18:08:45.896Z,51.70
2023-03-04T18:11:13.502Z,48.05
2023-03-04T18:13:43.472Z,55.83
2023-03-04T18:16:14.808Z,62.47
2023-03-04T18:18:43.846Z,47.45
2023-03-04T18:21:13.597Z,59.20
2023-03-04T18:23:41.845Z,55.22
2023-03-04T18:26:10.699Z,47.95
2023-03-04T18:28:38.938Z,53.10
2023-03-04T18:31:07.062Z,52.75
2023-03-04T18:33:35.123Z,50.42
2023-03-04T18:36:08.236Z,56.55
2023-03-04T18:38:35.991Z,48.60
2023-03-04T18:41:08.908Z,48.40
2023-03-04T18:43:36.900Z,49.83
2023-03-04T18:46:11.928Z,49.80
2023-03-04T18:48:43.552Z,49.25
2023-03-04T18:51:12.192Z,52.42
2023-03-04T18:53:40.862Z,55.20
2023-03-04T18:56:13.751Z,57.53
2023-03-04T18:58:44.598Z,60.45
2023-03-04T19:01:14.535Z,55.13
2023-03-04T19:03:43.767Z,60.38
2023-03-04T19:06:11.317Z,58.42
2023-03-04T19:08:39.298Z,63.15
2023-03-04T19:11:06.917Z,52.78
2023-03-04T19:13:35.314Z,69.95
2023-03-04T19:16:03.279Z,60.10
2023-03-04T19:18:30.941Z,61.78
2023-03-04T19:21:03.647Z,58.17
2023-03-04T19:23:33.829Z,65.15
2023-03-04T19:26:01.637Z,61.83
2023-03-04T19:28:29.684Z,61.00
2023-03-04T19:30:59.221Z,61.92
2023-03-04T19:33:27.599Z,57.63
2023-03-04T19:35:55.255Z,72.72
2023-03-04T19:38:23.647Z,64.18
2023-03-04T19:40:51.768Z,63.72
2023-03-04T19:43:19.487Z,61.35
2023-03-04T19:45:56.989Z,63.60
2023-03-04T19:48:25.149Z,61.25
2023-03-04T19:50:53.165Z,79.93
2023-03-04T19:53:21.188Z,62.67
2023-03-04T19:55:49.739Z,68.72
2023-03-04T19:58:18.488Z,80.47
2023-03-04T20:00:46.781Z,71.97
2023-03-04T20:03:14.907Z,69.30
2023-03-04T20:05:42.440Z,66.03
2023-03-04T20:08:09.985Z,72.82
2023-03-04T20:10:38.115Z,68.70
2023-03-04T20:13:08.581Z,74.78
2023-03-04T20:15:37.514Z,67.70
2023-03-04T20:18:05.345Z,76.60
2023-03-04T20:20:33.946Z,68.90
2023-03-04T20:23:01.690Z,69.03
2023-03-04T20:25:31.990Z,71.10
2023-03-04T20:27:59.645Z,72.05
2023-03-04T20:30:28.140Z,74.70
2023-03-04T20:32:56.856Z,79.93
2023-03-04T20:35:24.793Z,70.68
2023-03-04T20:37:52.796Z,69.30
2023-03-04T20:40:20.471Z,69.10
2023-03-04T20:42:48.639Z,63.75
2023-03-04T20:45:16.342Z,70.65
2023-03-04T20:47:43.781Z,72.60
2023-03-04T20:50:11.962Z,67.50
2023-03-04T20:52:40.288Z,70.20
2023-03-04T20:55:08.752Z,62.75
2023-03-04T20:57:36.289Z,69.35
2023-03-04T21:00:05.586Z,75.40
2023-03-04T21:02:33.669Z,65.55
2023-03-04T21:05:01.773Z,70.70
2023-03-04T21:07:29.387Z,68.75
2023-03-04T21:09:57.161Z,68.15
2023-03-04T21:12:26.194Z,64.70
2023-03-04T21:14:54.120Z,72.18
2023-03-04T21:17:24.489Z,59.30
2023-03-04T21:19:51.971Z,62.83
2023-03-04T21:22:20.524Z,64.18
2023-03-04T21:24:48.537Z,65.47
2023-03-04T21:27:17.028Z,65.68
2023-03-04T21:29:45.229Z,75.88
2023-03-04T21:32:27.095Z,69.75
2023-03-04T21:34:55.951Z,71.20
2023-03-04T21:37:25.145Z,82.40
2023-03-04T21:39:54.417Z,64.95
2023-03-04T21:42:22.672Z,72.47
2023-03-04T21:44:51.769Z,72.97
2023-03-04T21:47:21.034Z,70.45
2023-03-04T21:49:49.285Z,73.72
2023-03-04T21:52:19.640Z,80.88
2023-03-04T21:54:49.670Z,80.53
2023-03-04T21:57:18.018Z,82.82
2023-03-04T21:59:45.901Z,80.75
2023-03-04T22:02:16.955Z,82.60
2023-03-04T22:04:45.791Z,78.53
2023-03-04T22:07:14.772Z,85.65
2023-03-04T22:09:42.766Z,78.32
2023-03-04T22:12:10.606Z,80.97
2023-03-04T22:14:38.301Z,78.90
2023-03-04T22:17:07.022Z,79.97
2023-03-04T22:19:34.547Z,79.72
2023-03-04T22:22:02.668Z,78.18
2023-03-04T22:24:30.685Z,75.13
2023-03-04T22:26:59.897Z,75.63
2023-03-04T22:29:28.160Z,73.93
2023-03-04T22:31:56.788Z,79.65
2023-03-04T22:34:24.441Z,83.63
2023-03-04T22:36:52.446Z,72.38
2023-03-04T22:39:20.459Z,82.30
2023-03-04T22:41:49.033Z,82.07
2023-03-04T22:44:17.002Z,83.93
2023-03-04T22:46:44.784Z,72.93
2023-03-04T22:49:13.936Z,84.15
2023-03-04T22:51:43.296Z,86.63
2023-03-04T22:54:15.797Z,77.78
2023-03-04T22:56:44.175Z,77.53
2023-03-04T22:59:12.251Z,87.95
2023-03-04T23:01:40.543Z,79.10
2023-03-04T23:04:09.158Z,75.32
2023-03-04T23:06:37.803Z,81.22
2023-03-04T23:09:06.283Z,83.85
2023-03-04T23:11:39.461Z,89.32
2023-03-04T23:14:08.482Z,87.63
2023-03-04T23:16:41.092Z,85.35
2023-03-04T23:19:12.622Z,83.53
2023-03-04T23:21:41.202Z,81.88
2023-03-04T23:24:11.207Z,79.13
2023-03-04T23:26:41.178Z,92.32
2023-03-04T23:29:11.801Z,78.13
2023-03-04T23:31:39.913Z,81.43
2023-03-04T23:34:08.524Z,72.93
2023-03-04T23:36:38.132Z,83.32
2023-03-04T23:39:07.126Z,76.68
2023-03-04T23:41:36.117Z,77.90
2023-03-04T23:44:05.297Z,83.03
2023-03-04T23:46:33.227Z,77.63
2023-03-04T23:49:00.894Z,93.00
2023-03-04T23:51:29.794Z,94.70
2023-03-04T23:53:57.888Z,94.63
2023-03-04T23:56:29.413Z,94.35
2023-03-04T23:58:59.471Z,85.70
